Lerona, WV (25971)

7:13 PM EDT on July 07, 2015 (GMT -0400)
Pine Cone Lane | | Change Station
CLOSE
Current Station
Personal Weather Station
Location: Lerona, WV
Elevation: 2425 ft
Nearby Weather Stations

Elev 2425 ft 37.51 °N, 80.99 °W | Updated 5 minutes ago

Partly Cloudy
Partly Cloudy
73.2 °F
Feels Like 75 °F
N
0.0
Wind Variable Wind from West

Today
High -- | Low -- °F
--% Chance of Precip.
Yesterday
High -- | Low -- °F
Precip. -- in
6:09 AM 8:47 PM
Waning Gibbous, 60% visible
Pressure 30.08 in
Visibility 10.0 miles
Clouds Few 5500 ft
Few 7500 ft
Few 9500 ft
Heat Index 75 °F
Dew Point 64 °F
Humidity 73%
Rainfall 0.00 in
Snow Depth Not available.
UV 1 out of 12
Pollen 3.20 out of 12
Air Quality Not available.
Flu Activity Not available.
METAR KBLF 072252Z AUTO 21003KT 10SM FEW055 FEW075 FEW095 23/17 A3017 RMK AO2 RAB25E41 SLP184 P0000 T02280172

More Conditions Fewer Conditions

Pressure 30.08 in
Visibility 10.0 miles
Clouds Few 5500 ft
Few 7500 ft
Few 9500 ft
Heat Index 75 °F
Dew Point 64 °F
Humidity 73%
Rainfall 0.00 in
Snow Depth Not available.
UV 1 out of 12
Pollen 3.20 out of 12
Air Quality Not available.
Flu Activity Not available.
METAR KBLF 072252Z AUTO 21003KT 10SM FEW055 FEW075 FEW095 23/17 A3017 RMK AO2 RAB25E41 SLP184 P0000 T02280172

More Conditions Fewer Conditions

Nowcast | as of 6:45 PM EDT on July 7, 2015

at 643 PM EDT...Doppler radar indicated a broken line of showers and thunderstorms... along a line extending from near red Sulphur Spring to near Rocky Gap moving east at 20 mph. This line may intensify as it moves east across Giles County through 730 PM. Locations impacted include... Bluefield... Pearisburg... Narrows... Pembroke... and Peterstown.

×

10-Day Weather Forecast

×

Almanac

Astronomy

Jul. 07, 2015 Rise Set
Actual Time
Civil Twilight
Nautical Twilight
Astronomical Twilight
Moon
Length of Visible Light
Length of Day
Tomorrow will be .
, % of the Moon is Illuminated

Today's Extremes

State Highs State Lows

Community

WunderPhotos

Upload Photos

1,835,951 photos uploaded!

WunderBlogs® & News

Nearby

Air Quality

  Air Quality AQ Index Pollutant
Not available.

Snow Depth

Station Depth Elevation

Earthquake Activity

City Distance Mag. Time & Date
Minimum magnitude displayed is 2.5.

Coastal Water Temperatures

Place Temperature

Stations

Nearby Weather Stations

Station Location Temp. Windchill Dew Point Humidity Wind Precip. Elev Updated Type